Accueil
METAR-TAF:

METAR-TAF

Aéroports :

Aéroport de Laval - Entrammes

Laval, France

latitude: 48-01-56N, longitude: 000-44-34W, altitude: 101 m

Observation

Le bulletin a été fait il y a 44 minutes, à 20:30 UTC
Vent 12 kt de nord
Température 14°C
Humidité 94%
Pression 1018 hPa
Visibilité: 4100 m
pluie faible, brume

METAR: LFOV 162030Z AUTO 35012KT 4100 -RA BR FEW009/// OVC040/// ///TCU 14/13 Q1018

Heure: 23:14 (21:14 UTC)


TAF: absent

Observations et prévisions météorologiques de plus de 4000 aéroports (messages METAR et TAF).

Les stations disponibles sont représentées par des disques jaunes et rouges sur la carte.

Passer la souris dessus pour voir le nom de la station.

Cliquer dessus pour voir les observations et prévisions météorologiques.

Pour changer de carte: cliquez sur les boutons verts avec une croix noire pour zoomer, sur le bouton vert avec un tiret pour effectuer un zoom arrière, ou sur les flèches vertes pour les cartes adjacentes.


METAR-TAF: